Time;durP1;ratioP1;P1;durP2;ratioP2;P2;SDS_P1;SDS_P2;PMS_P1;PMS_P2;Temp;Humidity;BMP_temperature;BMP_pressure;BME280_temperature;BME280_humidity;BME280_pressure;Samples;Min_cycle;Max_cycle;Signal;HPM_P1;HPM_P2
2022/01/13 00:02:03;;;;;;;110.82;34.90;;;;;;;2.96;100.00;103678.72;9823163;30;20112;-90
2022/01/13 00:07:04;;;;;;;117.78;36.92;;;;;;;0.16;100.00;103367.47;9807576;30;20051;-91
2022/01/13 00:12:09;;;;;;;106.45;35.13;;;;;;;1.63;100.00;103454.66;9793727;30;20047;-90
2022/01/13 00:23:37;;;;;;;126.28;32.42;;;;;;;2.84;100.00;103946.47;9813110;30;20414;-91
2022/01/13 00:28:19;;;;;;;132.60;32.65;;;;;;;0.52;100.00;103442.22;9819852;30;20539;-92
2022/01/13 00:33:24;;;;;;;175.52;38.55;;;;;;;0.46;100.00;103453.56;9793359;30;20067;-92
2022/01/13 00:38:35;;;;;;;183.13;38.40;;;;;;;-3.14;100.00;102746.88;9806578;30;20458;-92
2022/01/13 00:43:39;;;;;;;185.02;41.00;;;;;;;-3.08;100.00;102797.59;9807015;30;20040;-90
2022/01/13 00:48:42;;;;;;;184.77;41.78;;;;;;;2.31;100.00;103639.94;9805525;30;20040;-90
2022/01/13 00:53:43;;;;;;;213.52;44.15;;;;;;;-2.72;100.00;102964.72;9805693;30;20111;-92
2022/01/13 00:58:53;;;;;;;228.73;44.10;;;;;;;-0.39;100.00;103364.63;9807495;30;20052;-92
2022/01/13 01:03:56;;;;;;;227.70;41.90;;;;;;;-2.42;100.00;102891.38;9806532;30;20044;-91
2022/01/13 01:09:03;;;;;;;206.02;43.65;;;;;;;2.39;100.00;103705.38;9805765;30;20410;-92
2022/01/13 01:14:06;;;;;;;226.10;41.78;;;;;;;0.24;100.00;103500.47;9791604;30;20552;-91
2022/01/13 01:19:11;;;;;;;219.10;40.50;;;;;;;-0.67;100.00;103334.31;9805520;30;20040;-92
2022/01/13 01:29:34;;;;;;;174.35;39.08;;;;;;;1.66;100.00;103533.19;9819791;30;20512;-91
2022/01/13 01:39:50;;;;;;;148.15;35.03;;;;;;;-1.81;100.00;102923.50;9828356;30;20445;-90
2022/01/13 01:44:53;;;;;;;143.73;34.10;;;;;;;-0.06;100.00;103314.19;9811845;30;20097;-89
2022/01/13 01:50:05;;;;;;;169.77;37.55;;;;;;;-1.21;100.00;103026.75;9812042;30;20036;-93
2022/01/13 01:55:26;;;;;;;152.27;37.13;;;;;;;-1.65;100.00;103212.13;9816564;30;20051;-91
2022/01/13 02:00:32;;;;;;;193.88;38.33;;;;;;;1.18;100.00;103574.28;9811269;30;20052;-91
2022/01/13 02:05:35;;;;;;;161.00;37.08;;;;;;;1.55;100.00;103489.75;9821151;30;20147;-91
2022/01/13 02:10:36;;;;;;;149.55;35.42;;;;;;;-0.35;100.00;103160.41;9796890;30;20478;-91
2022/01/13 02:16:06;;;;;;;175.30;38.35;;;;;;;1.66;100.00;103554.91;9812501;30;20395;-91
2022/01/13 02:21:09;;;;;;;144.80;35.25;;;;;;;-1.73;100.00;102925.59;9800102;30;20043;-90
2022/01/13 02:26:21;;;;;;;127.53;34.55;;;;;;;-1.44;100.00;103097.00;9810879;30;20055;-90
2022/01/13 02:31:22;;;;;;;137.63;33.20;;;;;;;-0.05;100.00;103509.03;9796835;30;20075;-90
2022/01/13 02:36:32;;;;;;;124.80;32.17;;;;;;;-0.74;100.00;103116.69;9811232;30;20051;-90
2022/01/13 02:41:34;;;;;;;121.38;34.28;;;;;;;-1.08;100.00;103275.31;9824715;30;20398;-90
2022/01/13 02:51:38;;;;;;;135.98;34.88;;;;;;;-1.62;100.00;103190.25;9824377;30;20135;-91
2022/01/13 02:56:49;;;;;;;;;;;;;;;;;;;;;
2022/01/13 03:01:49;;;;;;;131.05;34.20;;;;;;;1.25;100.00;103483.22;9810755;30;20043;-91
2022/01/13 03:06:50;;;;;;;109.00;34.70;;;;;;;-1.92;100.00;103075.53;9808871;30;20511;-89
2022/01/13 03:11:51;;;;;;;103.47;33.40;;;;;;;0.11;100.00;103315.53;9808851;30;20421;-91
2022/01/13 03:16:51;;;;;;;120.05;38.63;;;;;;;-1.13;100.00;103116.19;9809349;30;20047;-91
2022/01/13 03:21:52;;;;;;;116.07;35.95;;;;;;;-2.22;100.00;102783.75;9808537;30;20375;-91
2022/01/13 03:26:55;;;;;;;113.82;32.78;;;;;;;-1.31;100.00;103140.13;9809101;30;20044;-91
2022/01/13 03:31:56;;;;;;;129.68;36.95;;;;;;;2.34;100.00;103595.34;9807804;30;20055;-89
2022/01/13 03:36:56;;;;;;;104.45;32.53;;;;;;;-0.05;100.00;103296.94;9793369;30;20092;-89
2022/01/13 03:41:57;;;;;;;106.05;33.65;;;;;;;-0.55;100.00;103175.56;9785941;30;20398;-92
2022/01/13 03:47:03;;;;;;;110.78;34.63;;;;;;;2.36;100.00;103810.84;9785719;30;20453;-90
2022/01/13 03:52:22;;;;;;;113.55;33.05;;;;;;;1.22;100.00;103412.94;9785595;30;20048;-90
2022/01/13 03:57:58;;;;;;;118.63;34.08;;;;;;;-1.18;100.00;103194.06;9786116;30;20090;-90
2022/01/13 04:02:58;;;;;;;132.85;35.45;;;;;;;-1.39;100.00;103142.56;9806913;30;20150;-89
2022/01/13 04:08:01;;;;;;;144.68;32.28;;;;;;;-0.31;100.00;103166.41;9806794;30;20134;-91
2022/01/13 04:13:11;;;;;;;149.50;37.35;;;;;;;0.06;100.00;103405.25;9806886;30;20106;-90
2022/01/13 04:18:14;;;;;;;180.35;36.22;;;;;;;-2.12;100.00;102868.38;9807983;30;20036;-91
2022/01/13 04:23:14;;;;;;;169.68;34.88;;;;;;;2.26;100.00;103663.09;9807428;30;20028;-91
2022/01/13 04:28:15;;;;;;;165.90;36.42;;;;;;;-2.01;100.00;103042.97;9806700;30;20131;-89
2022/01/13 04:33:15;;;;;;;190.23;35.83;;;;;;;-2.77;100.00;102800.63;9806182;30;20083;-91
2022/01/13 04:38:19;;;;;;;188.23;36.33;;;;;;;-2.15;100.00;102901.88;9806013;30;20059;-90
2022/01/13 04:43:20;;;;;;;186.90;36.28;;;;;;;0.26;100.00;103261.94;9805429;30;20047;-91
2022/01/13 04:48:22;;;;;;;213.95;37.08;;;;;;;1.37;100.00;103536.47;9806197;30;20127;-90
2022/01/13 04:53:28;;;;;;;172.27;34.60;;;;;;;-0.09;100.00;103298.19;9807389;30;20135;-91
2022/01/13 04:58:31;;;;;;;202.70;36.47;;;;;;;-2.13;100.00;102936.81;9792141;30;20160;-91
2022/01/13 05:03:34;;;;;;;168.30;33.15;;;;;;;-0.69;100.00;103187.47;9791255;30;20047;-91
2022/01/13 05:08:37;;;;;;;190.18;35.67;;;;;;;2.36;100.00;103734.72;9792308;30;20105;-91
2022/01/13 05:13:38;;;;;;;197.52;38.75;;;;;;;-0.29;100.00;103234.81;9783320;30;20456;-90
2022/01/13 05:18:49;;;;;;;221.25;40.10;;;;;;;0.31;100.00;103441.22;9798522;30;20502;-89
2022/01/13 05:23:54;;;;;;;188.25;36.90;;;;;;;-0.45;100.00;103354.28;9816071;30;20036;-90
2022/01/13 05:28:55;;;;;;;188.13;38.10;;;;;;;-1.03;100.00;103211.81;9798534;30;20098;-90
2022/01/13 05:33:55;;;;;;;190.40;39.22;;;;;;;-0.49;100.00;103331.16;9797648;30;20048;-90
2022/01/13 05:38:56;;;;;;;179.95;37.70;;;;;;;-1.15;100.00;103161.41;9797262;30;20043;-90
2022/01/13 05:43:57;;;;;;;170.13;36.67;;;;;;;-0.60;100.00;103253.50;9797846;30;20451;-90
2022/01/13 05:48:58;;;;;;;180.35;40.17;;;;;;;3.56;100.00;103972.19;9797506;30;20044;-90
2022/01/13 05:53:58;;;;;;;171.50;37.95;;;;;;;-0.46;100.00;103153.13;9796512;30;20044;-90
2022/01/13 05:58:59;;;;;;;152.73;34.83;;;;;;;1.49;100.00;103583.47;9797631;30;20093;-90
2022/01/13 06:04:00;;;;;;;171.00;35.45;;;;;;;-1.55;100.00;103161.81;9797001;30;20119;-91
2022/01/13 06:09:03;;;;;;;240.35;44.10;;;;;;;-1.21;100.00;103248.38;9796888;30;20044;-91
2022/01/13 06:14:04;;;;;;;191.98;37.08;;;;;;;-1.34;100.00;103064.72;9796312;30;20068;-92
2022/01/13 06:19:05;;;;;;;172.20;39.15;;;;;;;-0.53;100.00;103319.72;9795931;30;20036;-87
2022/01/13 06:24:13;;;;;;;157.98;36.95;;;;;;;0.48;100.00;103350.44;9795480;30;20457;-90
2022/01/13 06:29:13;;;;;;;190.60;37.63;;;;;;;0.31;100.00;103417.72;9795318;30;20044;-90
2022/01/13 06:34:20;;;;;;;182.98;37.13;;;;;;;-0.90;100.00;103170.28;9795713;30;20041;-92
2022/01/13 06:39:22;;;;;;;196.38;38.42;;;;;;;3.69;100.00;103959.22;9781718;30;20044;-91
2022/01/13 06:44:25;;;;;;;182.00;35.83;;;;;;;-3.22;100.00;102791.53;9795162;30;20040;-90
2022/01/13 06:49:26;;;;;;;201.15;39.22;;;;;;;-1.18;100.00;103110.28;9795542;30;20044;-92
2022/01/13 06:54:49;;;;;;;166.32;35.28;;;;;;;1.18;100.00;103579.72;9802718;30;20060;-90
2022/01/13 06:59:49;;;;;;;158.57;33.88;;;;;;;-1.39;100.00;102995.78;9795591;30;20097;-90
2022/01/13 07:04:50;;;;;;;201.02;40.65;;;;;;;-0.42;100.00;103219.56;9794504;30;20064;-91
2022/01/13 07:09:56;;;;;;;227.70;42.58;;;;;;;-2.01;100.00;102922.38;9794811;30;20080;-90
2022/01/13 07:14:57;;;;;;;206.95;39.70;;;;;;;0.68;100.00;103335.22;9794305;30;20073;-91
2022/01/13 07:19:58;;;;;;;174.73;40.15;;;;;;;0.00;100.00;103321.81;9808274;30;20055;-90
2022/01/13 07:24:59;;;;;;;191.93;39.67;;;;;;;-0.86;100.00;103296.16;9793579;30;20143;-91
2022/01/13 07:30:11;;;;;;;189.60;41.90;;;;;;;-3.06;100.00;102849.53;9777772;30;20055;-91
2022/01/13 07:35:14;;;;;;;218.82;42.75;;;;;;;-1.60;100.00;103001.94;9785896;30;20343;-90
2022/01/13 07:40:15;;;;;;;199.15;39.95;;;;;;;-2.18;100.00;102931.78;9770602;30;20478;-90
2022/01/13 07:45:18;;;;;;;190.57;39.97;;;;;;;-1.20;100.00;103070.84;9796058;30;20486;-91
2022/01/13 07:50:21;;;;;;;244.95;42.97;;;;;;;-0.81;100.00;103223.63;9807335;30;20036;-90
2022/01/13 07:55:25;;;;;;;144.50;33.67;;;;;;;-1.53;100.00;102978.88;9807719;30;20048;-90
2022/01/13 08:00:28;;;;;;;194.23;41.10;;;;;;;1.64;100.00;103407.53;9821351;30;20043;-91
2022/01/13 08:05:36;;;;;;;222.15;38.35;;;;;;;-2.10;100.00;103006.75;9822422;30;20062;-91
2022/01/13 08:10:40;;;;;;;197.07;43.15;;;;;;;-0.13;100.00;103196.53;9821285;30;20047;-90
2022/01/13 08:15:51;;;;;;;183.43;39.03;;;;;;;0.72;100.00;103312.28;9821648;30;20055;-90
2022/01/13 08:20:52;;;;;;;164.73;36.97;;;;;;;-0.64;100.00;103139.28;9807024;30;20043;-90
2022/01/13 08:25:53;;;;;;;194.68;38.40;;;;;;;-0.93;100.00;103197.53;9792083;30;20590;-91
2022/01/13 08:30:57;;;;;;;160.13;36.70;;;;;;;-0.63;100.00;103292.50;9806793;30;20039;-91
2022/01/13 08:36:05;;;;;;;218.93;40.85;;;;;;;-2.32;100.00;103078.53;9792138;30;20056;-90
2022/01/13 08:47:25;;;;;;;;;;;;;;;;;;;;;
2022/01/13 08:52:33;;;;;;;172.25;38.22;;;;;;;-2.22;100.00;102940.25;9834252;30;20249;-89
2022/01/13 08:57:34;;;;;;;155.07;39.60;;;;;;;0.52;100.00;103409.69;9817682;30;20086;-87
2022/01/13 09:02:43;;;;;;;171.13;39.33;;;;;;;1.34;100.00;103411.00;9804977;30;20086;-92
2022/01/13 09:07:46;;;;;;;164.25;40.95;;;;;;;0.06;100.00;103353.78;9805619;30;20150;-89
2022/01/13 09:12:50;;;;;;;165.30;41.22;;;;;;;-0.36;100.00;103239.88;9818118;30;20040;-90
2022/01/13 09:17:54;;;;;;;198.18;44.10;;;;;;;-0.73;100.00;103074.25;9818943;30;20136;-91
2022/01/13 09:22:57;;;;;;;177.02;39.22;;;;;;;1.67;100.00;103466.13;9790452;30;20067;-88
2022/01/13 09:27:58;;;;;;;186.63;39.53;;;;;;;2.59;100.00;103621.25;9788750;30;20397;-90
2022/01/13 09:32:58;;;;;;;167.82;40.25;;;;;;;0.47;100.00;103306.19;9789400;30;20064;-91
2022/01/13 09:38:00;;;;;;;162.57;42.17;;;;;;;2.40;100.00;103625.56;9791710;30;20048;-91
2022/01/13 09:43:17;;;;;;;;;;;;;;;4.44;100.00;103845.31;9795168;30;20046;-90
2022/01/13 09:48:20;;;;;;;172.88;41.30;;;;;;;-1.02;100.00;103164.84;9805057;30;19972;-91
2022/01/13 09:53:23;;;;;;;154.43;43.45;;;;;;;-0.46;100.00;103299.28;9790638;30;20059;-90
2022/01/13 09:58:24;;;;;;;163.45;42.08;;;;;;;-0.89;100.00;103077.34;9779559;30;20047;-90
2022/01/13 10:03:33;;;;;;;138.52;38.38;;;;;;;0.58;100.00;103327.88;9798860;30;20044;-90
2022/01/13 10:08:57;;;;;;;123.00;34.97;;;;;;;1.92;100.00;103559.97;9796785;30;20464;-90
2022/01/13 10:16:23;;;;;;;126.65;36.05;;;;;;;-0.74;100.00;102977.88;9797382;30;20135;-91
2022/01/13 10:19:43;;;;;;;131.20;37.65;;;;;;;2.48;100.00;103592.28;9826979;30;20052;-92
2022/01/13 10:24:56;;;;;;;122.00;33.70;;;;;;;-1.84;100.00;102921.91;9810386;30;20105;-92
2022/01/13 10:29:58;;;;;;;126.30;37.33;;;;;;;0.84;100.00;103432.41;9775792;30;20098;-90
2022/01/13 10:35:17;;;;;;;119.10;35.13;;;;;;;-2.35;100.00;102693.00;9759260;30;20119;-92
2022/01/13 10:40:20;;;;;;;114.90;36.08;;;;;;;2.98;100.00;103608.69;9760044;30;20059;-92
2022/01/13 10:45:22;;;;;;;132.50;39.78;;;;;;;-2.29;100.00;102630.47;9807958;30;20089;-92
2022/01/13 10:50:27;;;;;;;112.25;33.92;;;;;;;0.28;100.00;103146.16;9808375;30;20044;-92
2022/01/13 10:55:27;;;;;;;102.15;32.17;;;;;;;0.19;100.00;103192.00;9767613;30;20033;-92
2022/01/13 11:00:33;;;;;;;79.95;28.25;;;;;;;-1.22;100.00;102852.03;9807017;30;20040;-92
2022/01/13 11:05:41;;;;;;;91.82;28.05;;;;;;;4.55;100.00;103886.16;9795706;30;20031;-91
2022/01/13 11:10:47;;;;;;;98.40;29.70;;;;;;;2.80;100.00;103537.72;9809479;30;20034;-91
2022/01/13 11:15:55;;;;;;;106.88;30.35;;;;;;;-0.08;100.00;102983.09;9809769;30;20048;-92
2022/01/13 11:20:56;;;;;;;102.70;32.05;;;;;;;4.90;100.00;103801.97;9790181;30;20055;-92
2022/01/13 11:25:57;;;;;;;87.63;28.63;;;;;;;2.82;100.00;103619.22;9822894;30;20529;-89
2022/01/13 11:31:00;;;;;;;93.43;28.70;;;;;;;-0.41;100.00;103088.69;9799999;30;20616;-91
2022/01/13 11:36:00;;;;;;;99.47;27.25;;;;;;;0.68;100.00;103172.53;9802699;30;20151;-89
2022/01/13 11:41:03;;;;;;;104.90;30.30;;;;;;;3.04;100.00;103588.25;9779214;30;20097;-89
2022/01/13 11:46:25;;;;;;;97.47;32.55;;;;;;;2.35;100.00;103451.09;9809341;30;20044;-93
2022/01/13 11:51:25;;;;;;;91.47;26.42;;;;;;;0.91;100.00;103236.50;9792197;30;20089;-92
2022/01/13 11:56:27;;;;;;;105.55;29.85;;;;;;;-1.47;100.00;102708.22;9793761;30;20558;-92
2022/01/13 12:01:31;;;;;;;94.70;28.15;;;;;;;0.88;100.00;103236.75;9809993;29;20051;-92
2022/01/13 12:06:36;;;;;;;103.82;31.27;;;;;;;3.48;100.00;103560.69;9802664;30;20102;-92
2022/01/13 12:11:50;;;;;;;98.85;28.90;;;;;;;2.02;100.00;103400.59;9801498;30;20052;-90
2022/01/13 12:16:57;;;;;;;98.63;28.67;;;;;;;2.97;100.00;103430.06;9815058;30;20040;-89
2022/01/13 12:22:36;;;;;;;105.43;31.88;;;;;;;0.10;100.00;103219.84;9795172;30;20036;-93
2022/01/13 12:28:49;;;;;;;;;;;;;;;;;;;;;
2022/01/13 12:35:06;;;;;;;;;;;;;;;;;;;;;
2022/01/13 12:41:03;;;;;;;86.47;29.63;;;;;;;-1.48;100.00;102643.50;9772730;30;20048;-93
2022/01/13 12:46:09;;;;;;;84.43;27.40;;;;;;;-1.07;100.00;102783.19;9823033;30;20046;-92
2022/01/13 12:51:36;;;;;;;75.50;25.08;;;;;;;5.17;100.00;103935.09;9783774;30;20386;-92
2022/01/13 12:56:48;;;;;;;73.30;25.45;;;;;;;1.52;100.00;103191.41;9818912;30;20486;-90
2022/01/13 13:01:51;;;;;;;74.20;27.00;;;;;;;-0.48;100.00;102954.00;9781888;30;20052;-91
2022/01/13 13:06:52;;;;;;;77.50;27.15;;;;;;;-2.34;100.00;102513.13;9817421;30;20043;-92
2022/01/13 13:11:56;;;;;;;73.28;25.65;;;;;;;5.31;100.00;103817.16;9795153;30;20052;-90
2022/01/13 13:16:57;;;;;;;79.65;26.80;;;;;;;0.73;100.00;103051.00;9791232;30;20036;-91
2022/01/13 13:21:57;;;;;;;61.95;24.23;;;;;;;-0.17;100.00;103027.19;9798683;30;20032;-92
2022/01/13 13:26:58;;;;;;;60.15;24.70;;;;;;;-0.28;100.00;102847.59;9795483;30;20538;-92
2022/01/13 13:31:58;;;;;;;63.63;23.83;;;;;;;3.66;100.00;103518.13;9789968;30;20127;-90
2022/01/13 13:36:59;;;;;;;56.58;25.25;;;;;;;0.57;100.00;103105.69;9797293;30;20094;-92
2022/01/13 13:42:03;;;;;;;49.65;24.65;;;;;;;-0.08;100.00;102820.66;9805251;30;20045;-90
2022/01/13 13:47:06;;;;;;;49.22;22.02;;;;;;;-1.70;100.00;102595.88;9805647;30;20036;-91
2022/01/13 13:52:09;;;;;;;48.50;22.85;;;;;;;2.22;100.00;103266.50;9799903;30;20041;-92
2022/01/13 13:57:13;;;;;;;52.35;22.85;;;;;;;-0.83;100.00;102749.59;9791935;30;20116;-91
2022/01/13 14:02:38;;;;;;;52.47;21.58;;;;;;;0.88;100.00;102915.91;9812705;30;20483;-91
2022/01/13 14:07:47;;;;;;;52.53;22.55;;;;;;;1.89;100.00;103122.88;9802383;30;20280;-88
2022/01/13 14:13:10;;;;;;;50.85;22.92;;;;;;;3.78;100.00;103418.88;9830353;30;20058;-92
2022/01/13 14:18:28;;;;;;;53.83;24.05;;;;;;;3.16;100.00;103275.94;9797129;30;20040;-91
2022/01/13 14:23:38;;;;;;;44.13;22.02;;;;;;;1.45;100.00;103191.09;9804204;30;20044;-91
2022/01/13 14:29:03;;;;;;;;;;;;;;;;;;;;;
2022/01/13 14:34:04;;;;;;;49.80;21.38;;;;;;;4.71;100.00;103675.44;9863060;30;20398;-91
2022/01/13 14:39:16;;;;;;;45.10;21.15;;;;;;;0.37;100.00;102961.09;9832647;30;20059;-92
2022/01/13 14:44:24;;;;;;;44.97;21.90;;;;;;;1.19;100.00;102989.91;9833198;30;20093;-93
2022/01/13 14:55:49;;;;;;;41.67;20.40;;;;;;;-0.58;100.00;102794.31;9858920;30;20040;-92
2022/01/13 15:01:11;;;;;;;43.57;20.40;;;;;;;5.85;100.00;103845.63;9824939;30;20513;-91
2022/01/13 15:06:24;;;;;;;50.58;21.48;;;;;;;0.62;100.00;102920.97;9831058;30;20039;-91
2022/01/13 15:11:58;;;;;;;;;;;;;;;;;;;;;
2022/01/13 15:17:48;;;;;;;62.22;31.83;;;;;;;1.32;100.00;103169.59;9850064;30;20062;-90
2022/01/13 15:23:11;;;;;;;53.05;29.17;;;;;;;2.46;100.00;103175.53;9778757;30;20068;-93
2022/01/13 15:28:28;;;;;;;;;;;;;;;;;;;;;
2022/01/13 15:33:41;;;;;;;;;;;;;;;5.76;100.00;103689.84;9814959;30;20063;-92
2022/01/13 15:38:44;;;;;;;55.42;23.95;;;;;;;-0.01;100.00;102862.41;9807024;30;19946;-91
2022/01/13 15:43:49;;;;;;;48.28;22.98;;;;;;;-0.61;100.00;102749.44;9815009;30;20034;-91
2022/01/13 15:48:55;;;;;;;56.85;23.70;;;;;;;-1.18;100.00;102534.56;9803952;30;20104;-92
2022/01/13 15:54:09;;;;;;;51.97;24.15;;;;;;;2.01;100.00;103214.13;9801010;30;20071;-93
2022/01/13 15:59:14;;;;;;;48.92;23.10;;;;;;;-0.47;100.00;102951.19;9788897;30;20062;-93
2022/01/13 16:04:29;;;;;;;49.03;21.27;;;;;;;0.66;100.00;103014.56;9816017;30;20044;-91
2022/01/13 16:09:37;;;;;;;44.35;21.92;;;;;;;-0.81;100.00;102785.47;9782388;30;20087;-91
2022/01/13 16:14:40;;;;;;;56.47;22.58;;;;;;;2.74;100.00;103319.78;9821078;30;20135;-90
2022/01/13 16:19:52;;;;;;;41.78;20.92;;;;;;;4.49;100.00;103570.25;9786757;30;20036;-90
2022/01/13 16:24:55;;;;;;;42.72;21.40;;;;;;;0.29;100.00;103028.66;9796459;30;20044;-91
2022/01/13 16:30:00;;;;;;;42.83;19.90;;;;;;;3.32;100.00;103436.84;9799667;30;20039;-89
2022/01/13 16:35:05;;;;;;;32.85;17.00;;;;;;;1.80;100.00;103342.72;9785353;30;20082;-93
2022/01/13 16:40:09;;;;;;;35.00;17.08;;;;;;;-0.50;100.00;102886.50;9836443;30;20078;-90
2022/01/13 16:45:18;;;;;;;32.40;17.70;;;;;;;1.53;100.00;103057.34;9793302;30;20032;-90
2022/01/13 16:50:25;;;;;;;34.17;15.35;;;;;;;5.76;100.00;103897.59;9816377;30;20505;-93
2022/01/13 16:55:36;;;;;;;55.42;17.63;;;;;;;1.84;100.00;103021.94;9780603;30;20052;-91
2022/01/13 17:00:41;;;;;;;26.38;13.20;;;;;;;1.67;100.00;103168.28;9799443;30;20421;-90
2022/01/13 17:05:48;;;;;;;29.58;14.10;;;;;;;1.73;100.00;103243.75;9795352;30;20093;-93
2022/01/13 17:10:58;;;;;;;28.92;12.57;;;;;;;1.91;100.00;103072.84;9790990;30;20379;-89
2022/01/13 17:16:03;;;;;;;24.73;11.40;;;;;;;3.36;100.00;103445.59;9790349;30;20040;-90
2022/01/13 17:21:08;;;;;;;24.73;10.18;;;;;;;0.04;100.00;102767.22;9820853;30;20047;-92
2022/01/13 17:26:18;;;;;;;31.92;11.18;;;;;;;1.61;100.00;103109.09;9820211;30;20413;-90
2022/01/13 17:31:21;;;;;;;40.28;9.85;;;;;;;1.63;100.00;103066.38;9808563;30;20460;-90
2022/01/13 17:36:25;;;;;;;24.70;8.88;;;;;;;0.13;100.00;102844.94;9807314;30;20056;-92
2022/01/13 17:41:25;;;;;;;26.33;8.00;;;;;;;1.75;100.00;103249.91;9819665;30;20054;-91
2022/01/13 17:46:28;;;;;;;20.63;8.63;;;;;;;3.15;100.00;103453.88;9790514;30;20127;-89
2022/01/13 17:51:28;;;;;;;22.90;7.28;;;;;;;3.20;100.00;103285.53;9797353;30;20036;-90
2022/01/13 17:56:40;;;;;;;23.08;7.50;;;;;;;0.30;100.00;102894.91;9798486;30;20076;-92
2022/01/13 18:01:40;;;;;;;18.70;7.75;;;;;;;1.15;100.00;103135.81;9792322;30;20110;-93
2022/01/13 18:06:41;;;;;;;34.30;11.45;;;;;;;2.62;100.00;103251.06;9789584;30;20551;-88
2022/01/13 18:11:42;;;;;;;34.58;15.05;;;;;;;2.29;100.00;103277.66;9789430;30;20129;-90
2022/01/13 18:16:46;;;;;;;59.88;29.23;;;;;;;1.25;100.00;102992.06;9790739;30;20525;-89
2022/01/13 18:21:46;;;;;;;68.90;34.10;;;;;;;2.27;100.00;103316.84;9796020;30;20410;-92
2022/01/13 18:26:47;;;;;;;84.50;42.55;;;;;;;2.18;100.00;103201.69;9796909;30;20079;-94
2022/01/13 18:31:48;;;;;;;103.10;51.50;;;;;;;0.76;100.00;103056.13;9796133;30;20482;-88
2022/01/13 18:36:49;;;;;;;65.53;32.50;;;;;;;1.67;100.00;103078.66;9810207;30;20063;-89
2022/01/13 18:41:51;;;;;;;61.08;28.73;;;;;;;1.80;100.00;103227.81;9796726;30;20051;-94
2022/01/13 18:46:52;;;;;;;71.90;31.77;;;;;;;1.29;100.00;103267.56;9810288;30;20501;-89
2022/01/13 18:51:53;;;;;;;60.05;25.63;;;;;;;-2.09;100.00;102642.31;9810351;30;20123;-89
2022/01/13 18:56:54;;;;;;;57.72;27.05;;;;;;;0.53;100.00;102923.50;9796529;30;20142;-94
2022/01/13 19:01:55;;;;;;;60.80;26.65;;;;;;;-0.90;100.00;102834.97;9808944;30;20052;-94
2022/01/13 19:06:56;;;;;;;81.07;30.25;;;;;;;0.72;100.00;103008.59;9794704;30;20048;-94
2022/01/13 19:11:57;;;;;;;70.93;29.48;;;;;;;2.05;100.00;103312.50;9794952;30;20076;-90
2022/01/13 19:17:04;;;;;;;79.45;32.17;;;;;;;-0.21;100.00;102873.16;9794756;30;20048;-90
2022/01/13 19:22:05;;;;;;;93.25;38.35;;;;;;;0.23;100.00;102947.91;9810861;30;20032;-92
2022/01/13 19:27:06;;;;;;;101.60;41.17;;;;;;;2.57;100.00;103343.13;9795480;30;20055;-92
2022/01/13 19:32:06;;;;;;;89.07;39.75;;;;;;;2.12;100.00;103354.44;9793483;30;20119;-92
2022/01/13 19:37:07;;;;;;;85.75;34.30;;;;;;;0.74;100.00;103125.91;9808270;30;20052;-94
2022/01/13 19:42:08;;;;;;;76.57;29.85;;;;;;;0.34;100.00;102993.91;9794895;30;20048;-89
2022/01/13 19:47:08;;;;;;;55.70;25.10;;;;;;;1.15;100.00;103156.69;9793998;30;20044;-92
2022/01/13 19:52:09;;;;;;;52.20;22.50;;;;;;;-1.51;100.00;102604.13;9793684;30;20043;-92
2022/01/13 19:57:09;;;;;;;52.05;21.42;;;;;;;1.05;100.00;103063.53;9808015;30;20103;-92
2022/01/13 20:02:10;;;;;;;57.00;22.50;;;;;;;0.67;100.00;103060.53;9792626;30;20032;-93
2022/01/13 20:07:11;;;;;;;55.03;20.83;;;;;;;0.29;100.00;102986.19;9808939;30;20135;-94
2022/01/13 20:12:13;;;;;;;54.65;22.10;;;;;;;0.88;100.00;103076.75;9807213;30;20036;-93
2022/01/13 20:17:15;;;;;;;56.60;24.08;;;;;;;1.86;100.00;103172.03;9793831;30;20135;-89
2022/01/13 20:22:16;;;;;;;54.58;20.73;;;;;;;0.34;100.00;102915.31;9806114;30;20509;-93
2022/01/13 20:27:17;;;;;;;49.05;20.58;;;;;;;2.16;100.00;103231.72;9821627;30;20054;-91
2022/01/13 20:32:17;;;;;;;44.40;19.67;;;;;;;1.81;100.00;103186.91;9777236;30;20048;-88
2022/01/13 20:37:18;;;;;;;44.55;20.02;;;;;;;2.87;100.00;103312.19;9777470;30;20520;-90
2022/01/13 20:42:18;;;;;;;50.22;21.45;;;;;;;2.41;100.00;103294.72;9789906;30;20051;-89
2022/01/13 20:47:19;;;;;;;47.13;19.92;;;;;;;-1.52;100.00;102729.34;9797887;30;20048;-92
2022/01/13 20:52:19;;;;;;;47.17;21.23;;;;;;;0.85;100.00;103063.47;9805204;30;20055;-92
2022/01/13 20:57:20;;;;;;;46.22;20.08;;;;;;;1.10;100.00;103169.81;9769705;30;20052;-89
2022/01/13 21:02:21;;;;;;;52.42;20.27;;;;;;;3.12;100.00;103394.28;9803358;30;20040;-93
2022/01/13 21:07:21;;;;;;;50.55;20.77;;;;;;;1.04;100.00;103140.50;9820360;30;20489;-89
2022/01/13 21:12:22;;;;;;;45.42;20.45;;;;;;;1.49;100.00;103224.22;9805019;30;20051;-92
2022/01/13 21:17:22;;;;;;;54.20;23.00;;;;;;;0.96;100.00;103109.47;9791104;30;20387;-92
2022/01/13 21:22:23;;;;;;;50.08;21.25;;;;;;;-0.54;100.00;102800.31;9805845;30;20123;-89
2022/01/13 21:27:24;;;;;;;53.10;21.42;;;;;;;-0.66;100.00;102672.41;9805067;30;20079;-92
2022/01/13 21:32:24;;;;;;;51.72;21.17;;;;;;;1.53;100.00;103020.22;9819818;30;20047;-89
2022/01/13 21:37:25;;;;;;;51.58;20.92;;;;;;;0.40;100.00;102939.16;9776195;30;20056;-91
2022/01/13 21:42:25;;;;;;;47.47;20.23;;;;;;;-0.34;100.00;102801.28;9790549;30;20108;-91
2022/01/13 21:47:26;;;;;;;49.20;19.25;;;;;;;0.10;100.00;102907.50;9803520;30;20040;-94
2022/01/13 21:52:27;;;;;;;47.00;20.02;;;;;;;-1.44;100.00;102589.06;9809939;30;20060;-89
2022/01/13 21:57:28;;;;;;;41.17;18.88;;;;;;;-0.52;100.00;102817.28;9797304;30;20047;-92
2022/01/13 22:02:29;;;;;;;39.55;18.17;;;;;;;2.67;100.00;103356.72;9791778;30;20478;-87
2022/01/13 22:07:31;;;;;;;37.78;18.13;;;;;;;0.70;100.00;103073.81;9813606;30;20071;-89
2022/01/13 22:12:31;;;;;;;38.47;17.27;;;;;;;1.42;100.00;103127.06;9806126;30;20079;-91
2022/01/13 22:17:32;;;;;;;50.80;17.63;;;;;;;-2.90;100.00;102333.59;9797968;30;20494;-89
2022/01/13 22:22:39;;;;;;;33.63;15.52;;;;;;;0.54;100.00;102903.56;9797390;30;20040;-91
2022/01/13 22:27:40;;;;;;;24.95;13.10;;;;;;;1.02;100.00;103051.13;9810646;30;20103;-93
2022/01/13 22:32:40;;;;;;;34.30;15.52;;;;;;;0.11;100.00;103009.44;9825379;30;20040;-91
2022/01/13 22:37:41;;;;;;;27.58;14.35;;;;;;;2.02;100.00;103191.38;9810043;30;20083;-91
2022/01/13 22:42:42;;;;;;;32.70;15.88;;;;;;;0.47;100.00;103048.72;9824883;30;20126;-91
2022/01/13 22:47:43;;;;;;;30.52;15.77;;;;;;;4.24;100.00;103691.72;9825561;30;20040;-91
2022/01/13 22:52:43;;;;;;;28.08;15.00;;;;;;;2.26;100.00;103169.22;9810152;30;20078;-92
2022/01/13 22:57:44;;;;;;;31.52;15.07;;;;;;;2.08;100.00;103217.13;9810576;30;20049;-93
2022/01/13 23:02:45;;;;;;;29.98;15.30;;;;;;;-0.39;100.00;102715.09;9795092;30;20052;-92
2022/01/13 23:07:47;;;;;;;28.83;15.65;;;;;;;-0.89;100.00;102648.25;9795696;30;20044;-94
2022/01/13 23:12:49;;;;;;;33.22;15.27;;;;;;;-2.29;100.00;102695.22;9795142;30;20045;-93
2022/01/13 23:23:31;;;;;;;35.55;16.42;;;;;;;-2.65;100.00;102569.59;9815136;30;20068;-93
2022/01/13 23:28:34;;;;;;;35.17;17.00;;;;;;;0.20;100.00;102971.56;9795052;30;20044;-93
2022/01/13 23:33:38;;;;;;;38.17;16.73;;;;;;;-0.97;100.00;102683.22;9796279;30;20071;-93
2022/01/13 23:38:39;;;;;;;35.10;17.77;;;;;;;4.53;100.00;103538.94;9794114;30;20056;-94
2022/01/13 23:43:44;;;;;;;33.33;18.45;;;;;;;-1.44;100.00;102816.00;9794787;30;20047;-94
2022/01/13 23:48:46;;;;;;;34.45;17.13;;;;;;;0.46;100.00;102851.91;9794643;30;20054;-93
2022/01/13 23:54:05;;;;;;;38.35;18.70;;;;;;;4.56;100.00;103729.59;9798122;30;20513;-95